sensor_id;sensor_type;location;lat;lon;timestamp;temperature;humidity
46335;DHT22;32051;48.882;9.210;2022-12-16T00:01:03;-1.40;99.90
46335;DHT22;32051;48.882;9.210;2022-12-16T00:03:29;-1.40;99.90
46335;DHT22;32051;48.882;9.210;2022-12-16T00:05:55;-1.40;99.90
46335;DHT22;32051;48.882;9.210;2022-12-16T00:08:20;-1.40;99.90
46335;DHT22;32051;48.882;9.210;2022-12-16T00:10:46;-1.40;99.90
46335;DHT22;32051;48.882;9.210;2022-12-16T00:13:17;-1.40;99.90
46335;DHT22;32051;48.882;9.210;2022-12-16T00:15:43;-1.30;99.90
46335;DHT22;32051;48.882;9.210;2022-12-16T00:18:11;-1.40;99.90
46335;DHT22;32051;48.882;9.210;2022-12-16T00:20:36;-1.30;99.90
46335;DHT22;32051;48.882;9.210;2022-12-16T00:23:02;-1.40;99.90
46335;DHT22;32051;48.882;9.210;2022-12-16T00:25:28;-1.40;99.90
46335;DHT22;32051;48.882;9.210;2022-12-16T00:27:53;-1.40;99.90
46335;DHT22;32051;48.882;9.210;2022-12-16T00:30:19;-1.40;99.90
46335;DHT22;32051;48.882;9.210;2022-12-16T00:32:44;-1.40;99.90
46335;DHT22;32051;48.882;9.210;2022-12-16T00:35:10;-1.40;99.90
46335;DHT22;32051;48.882;9.210;2022-12-16T00:37:35;-1.40;99.90
46335;DHT22;32051;48.882;9.210;2022-12-16T00:40:01;-1.40;99.90
46335;DHT22;32051;48.882;9.210;2022-12-16T00:42:26;-1.40;99.90
46335;DHT22;32051;48.882;9.210;2022-12-16T00:44:52;-1.40;99.90
46335;DHT22;32051;48.882;9.210;2022-12-16T00:47:17;-1.40;99.90
46335;DHT22;32051;48.882;9.210;2022-12-16T00:49:43;-1.40;99.90
46335;DHT22;32051;48.882;9.210;2022-12-16T00:52:08;-1.40;99.90
46335;DHT22;32051;48.882;9.210;2022-12-16T00:54:34;-1.40;99.90
46335;DHT22;32051;48.882;9.210;2022-12-16T00:56:59;-1.40;99.90
46335;DHT22;32051;48.882;9.210;2022-12-16T00:59:25;-1.40;99.90
46335;DHT22;32051;48.882;9.210;2022-12-16T01:01:50;-1.40;99.90
46335;DHT22;32051;48.882;9.210;2022-12-16T01:04:16;-1.40;99.90
46335;DHT22;32051;48.882;9.210;2022-12-16T01:06:42;-1.40;99.90
46335;DHT22;32051;48.882;9.210;2022-12-16T01:09:07;-1.40;99.90
46335;DHT22;32051;48.882;9.210;2022-12-16T01:13:59;-1.50;99.90
46335;DHT22;32051;48.882;9.210;2022-12-16T01:16:24;-1.60;99.90
46335;DHT22;32051;48.882;9.210;2022-12-16T01:18:50;-1.60;99.90
46335;DHT22;32051;48.882;9.210;2022-12-16T01:21:15;-1.60;99.90
46335;DHT22;32051;48.882;9.210;2022-12-16T01:23:41;-1.60;99.90
46335;DHT22;32051;48.882;9.210;2022-12-16T01:26:08;-1.60;99.90
46335;DHT22;32051;48.882;9.210;2022-12-16T01:28:33;-1.60;99.90
46335;DHT22;32051;48.882;9.210;2022-12-16T01:30:59;-1.60;99.90
46335;DHT22;32051;48.882;9.210;2022-12-16T01:33:29;-1.60;99.90
46335;DHT22;32051;48.882;9.210;2022-12-16T01:36:02;-1.60;99.90
46335;DHT22;32051;48.882;9.210;2022-12-16T01:38:28;-1.60;99.90
46335;DHT22;32051;48.882;9.210;2022-12-16T01:40:54;-1.60;99.90
46335;DHT22;32051;48.882;9.210;2022-12-16T01:43:22;-1.60;99.90
46335;DHT22;32051;48.882;9.210;2022-12-16T01:45:48;-1.60;99.90
46335;DHT22;32051;48.882;9.210;2022-12-16T01:50:51;-1.60;99.90
46335;DHT22;32051;48.882;9.210;2022-12-16T01:53:21;-1.70;99.90
46335;DHT22;32051;48.882;9.210;2022-12-16T01:55:47;-1.60;99.90
46335;DHT22;32051;48.882;9.210;2022-12-16T01:58:23;-1.60;99.90
46335;DHT22;32051;48.882;9.210;2022-12-16T02:00:50;-1.60;99.90
46335;DHT22;32051;48.882;9.210;2022-12-16T02:03:15;-1.60;99.90
46335;DHT22;32051;48.882;9.210;2022-12-16T02:05:41;-1.60;99.90
46335;DHT22;32051;48.882;9.210;2022-12-16T02:08:14;-1.60;99.90
46335;DHT22;32051;48.882;9.210;2022-12-16T02:13:15;-1.60;99.90
46335;DHT22;32051;48.882;9.210;2022-12-16T02:18:12;-1.50;99.90
46335;DHT22;32051;48.882;9.210;2022-12-16T02:20:51;-1.50;99.90
46335;DHT22;32051;48.882;9.210;2022-12-16T02:23:42;-1.60;99.90
46335;DHT22;32051;48.882;9.210;2022-12-16T02:26:14;-1.50;99.90
46335;DHT22;32051;48.882;9.210;2022-12-16T02:28:55;-1.50;99.90
46335;DHT22;32051;48.882;9.210;2022-12-16T02:34:12;-1.50;99.90
46335;DHT22;32051;48.882;9.210;2022-12-16T02:36:46;-1.50;99.90
46335;DHT22;32051;48.882;9.210;2022-12-16T02:39:22;-1.50;99.90
46335;DHT22;32051;48.882;9.210;2022-12-16T02:41:56;-1.50;99.90
46335;DHT22;32051;48.882;9.210;2022-12-16T02:44:26;-1.50;99.90
46335;DHT22;32051;48.882;9.210;2022-12-16T02:46:54;-1.50;99.90
46335;DHT22;32051;48.882;9.210;2022-12-16T02:51:45;-1.50;99.90
46335;DHT22;32051;48.882;9.210;2022-12-16T02:54:11;-1.50;99.90
46335;DHT22;32051;48.882;9.210;2022-12-16T02:56:59;-1.50;99.90
46335;DHT22;32051;48.882;9.210;2022-12-16T03:01:53;-1.50;99.90
46335;DHT22;32051;48.882;9.210;2022-12-16T03:04:34;-1.50;99.90
46335;DHT22;32051;48.882;9.210;2022-12-16T03:07:01;-1.50;99.90
46335;DHT22;32051;48.882;9.210;2022-12-16T03:09:29;-1.50;99.90
46335;DHT22;32051;48.882;9.210;2022-12-16T03:11:56;-1.50;99.90
46335;DHT22;32051;48.882;9.210;2022-12-16T03:14:24;-1.50;99.90
46335;DHT22;32051;48.882;9.210;2022-12-16T03:16:50;-1.50;99.90
46335;DHT22;32051;48.882;9.210;2022-12-16T03:19:16;-1.50;99.90
46335;DHT22;32051;48.882;9.210;2022-12-16T03:21:44;-1.40;99.90
46335;DHT22;32051;48.882;9.210;2022-12-16T03:24:11;-1.40;99.90
46335;DHT22;32051;48.882;9.210;2022-12-16T03:27:24;-1.50;99.90
46335;DHT22;32051;48.882;9.210;2022-12-16T03:29:36;-1.50;99.90
46335;DHT22;32051;48.882;9.210;2022-12-16T03:32:04;-1.50;99.90
46335;DHT22;32051;48.882;9.210;2022-12-16T03:37:07;-1.50;99.90
46335;DHT22;32051;48.882;9.210;2022-12-16T03:39:34;-1.50;99.90
46335;DHT22;32051;48.882;9.210;2022-12-16T03:42:01;-1.60;99.90
46335;DHT22;32051;48.882;9.210;2022-12-16T03:44:27;-1.60;99.90
46335;DHT22;32051;48.882;9.210;2022-12-16T03:46:53;-1.60;99.90
46335;DHT22;32051;48.882;9.210;2022-12-16T03:49:19;-1.60;99.90
46335;DHT22;32051;48.882;9.210;2022-12-16T03:51:45;-1.70;99.90
46335;DHT22;32051;48.882;9.210;2022-12-16T03:54:10;-1.70;99.90
46335;DHT22;32051;48.882;9.210;2022-12-16T03:56:36;-1.70;99.90
46335;DHT22;32051;48.882;9.210;2022-12-16T03:59:02;-1.70;99.90
46335;DHT22;32051;48.882;9.210;2022-12-16T04:01:27;-1.70;99.90
46335;DHT22;32051;48.882;9.210;2022-12-16T04:03:53;-1.70;99.90
46335;DHT22;32051;48.882;9.210;2022-12-16T04:06:18;-1.70;99.90
46335;DHT22;32051;48.882;9.210;2022-12-16T04:08:44;-1.70;99.90
46335;DHT22;32051;48.882;9.210;2022-12-16T04:11:11;-1.70;99.90
46335;DHT22;32051;48.882;9.210;2022-12-16T04:13:55;-1.70;99.90
46335;DHT22;32051;48.882;9.210;2022-12-16T04:16:39;-1.70;99.90
46335;DHT22;32051;48.882;9.210;2022-12-16T04:19:27;-1.70;99.90
46335;DHT22;32051;48.882;9.210;2022-12-16T04:22:13;-1.70;99.90
46335;DHT22;32051;48.882;9.210;2022-12-16T04:25:02;-1.70;99.90
46335;DHT22;32051;48.882;9.210;2022-12-16T04:27:28;-1.70;99.90
46335;DHT22;32051;48.882;9.210;2022-12-16T04:29:54;-1.70;99.90
46335;DHT22;32051;48.882;9.210;2022-12-16T04:32:38;-1.70;99.90
46335;DHT22;32051;48.882;9.210;2022-12-16T04:35:22;-1.70;99.90
46335;DHT22;32051;48.882;9.210;2022-12-16T04:38:06;-1.70;99.90
46335;DHT22;32051;48.882;9.210;2022-12-16T04:40:50;-1.70;99.90
46335;DHT22;32051;48.882;9.210;2022-12-16T04:43:34;-1.70;99.90
46335;DHT22;32051;48.882;9.210;2022-12-16T04:46:18;-1.60;99.90
46335;DHT22;32051;48.882;9.210;2022-12-16T04:49:02;-1.70;99.90
46335;DHT22;32051;48.882;9.210;2022-12-16T04:51:46;-1.60;99.90
46335;DHT22;32051;48.882;9.210;2022-12-16T04:54:30;-1.60;99.90
46335;DHT22;32051;48.882;9.210;2022-12-16T04:57:28;-1.60;99.90
46335;DHT22;32051;48.882;9.210;2022-12-16T05:00:12;-1.60;99.90
46335;DHT22;32051;48.882;9.210;2022-12-16T05:02:56;-1.60;99.90
46335;DHT22;32051;48.882;9.210;2022-12-16T05:05:41;-1.60;99.90
46335;DHT22;32051;48.882;9.210;2022-12-16T05:08:25;-1.50;99.90
46335;DHT22;32051;48.882;9.210;2022-12-16T05:11:09;-1.50;99.90
46335;DHT22;32051;48.882;9.210;2022-12-16T05:13:53;-1.50;99.90
46335;DHT22;32051;48.882;9.210;2022-12-16T05:16:37;-1.50;99.90
46335;DHT22;32051;48.882;9.210;2022-12-16T05:19:21;-1.50;99.90
46335;DHT22;32051;48.882;9.210;2022-12-16T05:22:05;-1.60;99.90
46335;DHT22;32051;48.882;9.210;2022-12-16T05:24:49;-1.50;99.90
46335;DHT22;32051;48.882;9.210;2022-12-16T05:27:33;-1.60;99.90
46335;DHT22;32051;48.882;9.210;2022-12-16T05:30:17;-1.50;99.90
46335;DHT22;32051;48.882;9.210;2022-12-16T05:33:01;-1.50;99.90
46335;DHT22;32051;48.882;9.210;2022-12-16T05:35:46;-1.50;99.90
46335;DHT22;32051;48.882;9.210;2022-12-16T05:38:30;-1.50;99.90
46335;DHT22;32051;48.882;9.210;2022-12-16T05:41:13;-1.50;99.90
46335;DHT22;32051;48.882;9.210;2022-12-16T05:43:57;-1.50;99.90
46335;DHT22;32051;48.882;9.210;2022-12-16T05:46:41;-1.50;99.90
46335;DHT22;32051;48.882;9.210;2022-12-16T05:49:25;-1.50;99.90
46335;DHT22;32051;48.882;9.210;2022-12-16T05:52:09;-1.50;99.90
46335;DHT22;32051;48.882;9.210;2022-12-16T05:54:53;-1.50;99.90
46335;DHT22;32051;48.882;9.210;2022-12-16T05:57:37;-1.50;99.90
46335;DHT22;32051;48.882;9.210;2022-12-16T06:00:21;-1.50;99.90
46335;DHT22;32051;48.882;9.210;2022-12-16T06:03:05;-1.50;99.90
46335;DHT22;32051;48.882;9.210;2022-12-16T06:05:49;-1.50;99.90
46335;DHT22;32051;48.882;9.210;2022-12-16T06:08:33;-1.40;99.90
46335;DHT22;32051;48.882;9.210;2022-12-16T06:11:18;-1.50;99.90
46335;DHT22;32051;48.882;9.210;2022-12-16T06:14:02;-1.50;99.90
46335;DHT22;32051;48.882;9.210;2022-12-16T06:16:46;-1.50;99.90
46335;DHT22;32051;48.882;9.210;2022-12-16T06:19:30;-1.50;99.90
46335;DHT22;32051;48.882;9.210;2022-12-16T06:22:14;-1.50;99.90
46335;DHT22;32051;48.882;9.210;2022-12-16T06:24:58;-1.50;99.90
46335;DHT22;32051;48.882;9.210;2022-12-16T06:27:42;-1.50;99.90
46335;DHT22;32051;48.882;9.210;2022-12-16T06:30:26;-1.40;99.90
46335;DHT22;32051;48.882;9.210;2022-12-16T06:33:10;-1.50;99.90
46335;DHT22;32051;48.882;9.210;2022-12-16T06:35:54;-1.50;99.90
46335;DHT22;32051;48.882;9.210;2022-12-16T06:38:38;-1.40;99.90
46335;DHT22;32051;48.882;9.210;2022-12-16T06:41:22;-1.40;99.90
46335;DHT22;32051;48.882;9.210;2022-12-16T06:44:06;-1.40;99.90
46335;DHT22;32051;48.882;9.210;2022-12-16T06:46:50;-1.40;99.90
46335;DHT22;32051;48.882;9.210;2022-12-16T06:49:34;-1.40;99.90
46335;DHT22;32051;48.882;9.210;2022-12-16T06:52:18;-1.40;99.90
46335;DHT22;32051;48.882;9.210;2022-12-16T06:55:02;-1.40;99.90
46335;DHT22;32051;48.882;9.210;2022-12-16T06:57:46;-1.40;99.90
46335;DHT22;32051;48.882;9.210;2022-12-16T07:00:30;-1.40;99.90
46335;DHT22;32051;48.882;9.210;2022-12-16T07:03:14;-1.40;99.90
46335;DHT22;32051;48.882;9.210;2022-12-16T07:05:58;-1.40;99.90
46335;DHT22;32051;48.882;9.210;2022-12-16T07:08:43;-1.40;99.90
46335;DHT22;32051;48.882;9.210;2022-12-16T07:11:27;-1.40;99.90
46335;DHT22;32051;48.882;9.210;2022-12-16T07:14:11;-1.40;99.90
46335;DHT22;32051;48.882;9.210;2022-12-16T07:16:55;-1.40;99.90
46335;DHT22;32051;48.882;9.210;2022-12-16T07:19:39;-1.40;99.90
46335;DHT22;32051;48.882;9.210;2022-12-16T07:22:23;-1.40;99.90
46335;DHT22;32051;48.882;9.210;2022-12-16T07:25:07;-1.40;99.90
46335;DHT22;32051;48.882;9.210;2022-12-16T07:27:51;-1.50;99.90
46335;DHT22;32051;48.882;9.210;2022-12-16T07:30:35;-1.50;99.90
46335;DHT22;32051;48.882;9.210;2022-12-16T07:33:19;-1.40;99.90
46335;DHT22;32051;48.882;9.210;2022-12-16T07:36:03;-1.50;99.90
46335;DHT22;32051;48.882;9.210;2022-12-16T07:38:47;-1.50;99.90
46335;DHT22;32051;48.882;9.210;2022-12-16T07:41:31;-1.50;99.90
46335;DHT22;32051;48.882;9.210;2022-12-16T07:44:17;-1.40;99.90
46335;DHT22;32051;48.882;9.210;2022-12-16T07:47:02;-1.40;99.90
46335;DHT22;32051;48.882;9.210;2022-12-16T07:49:46;-1.40;99.90
46335;DHT22;32051;48.882;9.210;2022-12-16T07:52:30;-1.40;99.90
46335;DHT22;32051;48.882;9.210;2022-12-16T07:55:14;-1.40;99.90
46335;DHT22;32051;48.882;9.210;2022-12-16T07:57:58;-1.40;99.90
46335;DHT22;32051;48.882;9.210;2022-12-16T08:00:42;-1.40;99.90
46335;DHT22;32051;48.882;9.210;2022-12-16T08:03:26;-1.40;99.90
46335;DHT22;32051;48.882;9.210;2022-12-16T08:06:10;-1.40;99.90
46335;DHT22;32051;48.882;9.210;2022-12-16T08:08:54;-1.40;99.90
46335;DHT22;32051;48.882;9.210;2022-12-16T08:11:38;-1.30;99.90
46335;DHT22;32051;48.882;9.210;2022-12-16T08:14:22;-1.30;99.90
46335;DHT22;32051;48.882;9.210;2022-12-16T08:17:06;-1.30;99.90
46335;DHT22;32051;48.882;9.210;2022-12-16T08:19:50;-1.20;99.90
46335;DHT22;32051;48.882;9.210;2022-12-16T08:22:34;-1.20;99.90
46335;DHT22;32051;48.882;9.210;2022-12-16T08:25:18;-1.20;99.90
46335;DHT22;32051;48.882;9.210;2022-12-16T08:28:02;-1.30;99.90
46335;DHT22;32051;48.882;9.210;2022-12-16T08:30:49;-1.30;99.90
46335;DHT22;32051;48.882;9.210;2022-12-16T08:33:33;-1.30;99.90
46335;DHT22;32051;48.882;9.210;2022-12-16T08:36:18;-1.40;99.90
46335;DHT22;32051;48.882;9.210;2022-12-16T08:39:03;-1.40;99.90
46335;DHT22;32051;48.882;9.210;2022-12-16T08:41:47;-1.40;99.90
46335;DHT22;32051;48.882;9.210;2022-12-16T08:44:31;-1.40;99.90
46335;DHT22;32051;48.882;9.210;2022-12-16T08:47:16;-1.40;99.90
46335;DHT22;32051;48.882;9.210;2022-12-16T08:49:59;-1.40;99.90
46335;DHT22;32051;48.882;9.210;2022-12-16T08:52:43;-1.30;99.90
46335;DHT22;32051;48.882;9.210;2022-12-16T08:55:27;-1.30;99.90
46335;DHT22;32051;48.882;9.210;2022-12-16T08:58:11;-1.30;99.90
46335;DHT22;32051;48.882;9.210;2022-12-16T09:00:55;-1.30;99.90
46335;DHT22;32051;48.882;9.210;2022-12-16T09:03:40;-1.30;99.90
46335;DHT22;32051;48.882;9.210;2022-12-16T09:06:24;-1.30;99.90
46335;DHT22;32051;48.882;9.210;2022-12-16T09:09:08;-1.30;99.90
46335;DHT22;32051;48.882;9.210;2022-12-16T09:11:52;-1.20;99.90
46335;DHT22;32051;48.882;9.210;2022-12-16T09:14:36;-1.20;99.90
46335;DHT22;32051;48.882;9.210;2022-12-16T09:17:20;-1.10;99.90
46335;DHT22;32051;48.882;9.210;2022-12-16T09:20:05;-1.00;99.90
46335;DHT22;32051;48.882;9.210;2022-12-16T09:22:49;-1.00;99.90
46335;DHT22;32051;48.882;9.210;2022-12-16T09:25:33;-0.90;99.90
46335;DHT22;32051;48.882;9.210;2022-12-16T09:28:17;-0.80;99.90
46335;DHT22;32051;48.882;9.210;2022-12-16T09:31:01;-0.70;99.90
46335;DHT22;32051;48.882;9.210;2022-12-16T09:33:45;-0.80;99.90
46335;DHT22;32051;48.882;9.210;2022-12-16T09:36:29;-0.80;99.90
46335;DHT22;32051;48.882;9.210;2022-12-16T09:39:13;-0.80;99.90
46335;DHT22;32051;48.882;9.210;2022-12-16T09:45:04;-0.80;99.90
46335;DHT22;32051;48.882;9.210;2022-12-16T09:50:36;-0.70;99.90
46335;DHT22;32051;48.882;9.210;2022-12-16T09:53:21;-0.70;99.90
46335;DHT22;32051;48.882;9.210;2022-12-16T09:56:15;-0.70;99.90
46335;DHT22;32051;48.882;9.210;2022-12-16T09:59:00;-0.70;99.90
46335;DHT22;32051;48.882;9.210;2022-12-16T10:01:45;-0.60;99.90
46335;DHT22;32051;48.882;9.210;2022-12-16T10:04:29;-0.70;99.90
46335;DHT22;32051;48.882;9.210;2022-12-16T10:07:16;-0.70;99.90
46335;DHT22;32051;48.882;9.210;2022-12-16T10:13:06;-0.60;99.90
46335;DHT22;32051;48.882;9.210;2022-12-16T10:15:56;-0.50;99.90
46335;DHT22;32051;48.882;9.210;2022-12-16T10:21:29;-0.40;99.90
46335;DHT22;32051;48.882;9.210;2022-12-16T10:24:20;-0.40;99.90
46335;DHT22;32051;48.882;9.210;2022-12-16T10:27:11;-0.30;99.90
46335;DHT22;32051;48.882;9.210;2022-12-16T10:29:56;-0.20;99.90
46335;DHT22;32051;48.882;9.210;2022-12-16T10:32:45;-0.20;99.90
46335;DHT22;32051;48.882;9.210;2022-12-16T10:35:32;-0.20;99.90
46335;DHT22;32051;48.882;9.210;2022-12-16T10:38:23;-0.20;99.90
46335;DHT22;32051;48.882;9.210;2022-12-16T10:41:08;0.00;99.90
46335;DHT22;32051;48.882;9.210;2022-12-16T10:43:53;0.00;99.90
46335;DHT22;32051;48.882;9.210;2022-12-16T10:46:38;0.00;99.90
46335;DHT22;32051;48.882;9.210;2022-12-16T10:49:22;0.00;99.90
46335;DHT22;32051;48.882;9.210;2022-12-16T10:52:08;0.00;99.90
46335;DHT22;32051;48.882;9.210;2022-12-16T10:54:57;0.10;99.90
46335;DHT22;32051;48.882;9.210;2022-12-16T10:57:47;0.20;99.90
46335;DHT22;32051;48.882;9.210;2022-12-16T11:00:38;0.20;99.90
46335;DHT22;32051;48.882;9.210;2022-12-16T11:03:23;0.10;99.90
46335;DHT22;32051;48.882;9.210;2022-12-16T11:06:08;0.20;99.90
46335;DHT22;32051;48.882;9.210;2022-12-16T11:08:53;0.20;99.90
46335;DHT22;32051;48.882;9.210;2022-12-16T11:11:37;0.30;99.90
46335;DHT22;32051;48.882;9.210;2022-12-16T11:14:22;0.40;99.90
46335;DHT22;32051;48.882;9.210;2022-12-16T11:17:17;0.50;99.90
46335;DHT22;32051;48.882;9.210;2022-12-16T11:20:06;0.40;99.90
46335;DHT22;32051;48.882;9.210;2022-12-16T11:23:06;0.50;99.90
46335;DHT22;32051;48.882;9.210;2022-12-16T11:26:10;0.50;99.90
46335;DHT22;32051;48.882;9.210;2022-12-16T11:29:13;0.50;99.90
46335;DHT22;32051;48.882;9.210;2022-12-16T11:34:49;0.30;99.90
46335;DHT22;32051;48.882;9.210;2022-12-16T11:37:35;0.30;99.90
46335;DHT22;32051;48.882;9.210;2022-12-16T11:40:20;0.30;99.90
46335;DHT22;32051;48.882;9.210;2022-12-16T11:43:05;0.30;99.90
46335;DHT22;32051;48.882;9.210;2022-12-16T11:45:50;0.40;99.90
46335;DHT22;32051;48.882;9.210;2022-12-16T11:51:26;0.50;99.90
46335;DHT22;32051;48.882;9.210;2022-12-16T11:54:26;0.50;99.90
46335;DHT22;32051;48.882;9.210;2022-12-16T11:57:45;0.60;99.90
46335;DHT22;32051;48.882;9.210;2022-12-16T12:00:21;0.70;99.90
46335;DHT22;32051;48.882;9.210;2022-12-16T12:03:06;0.80;99.90
46335;DHT22;32051;48.882;9.210;2022-12-16T12:08:45;0.80;99.90
46335;DHT22;32051;48.882;9.210;2022-12-16T12:11:34;0.80;99.90
46335;DHT22;32051;48.882;9.210;2022-12-16T12:14:29;0.80;99.90
46335;DHT22;32051;48.882;9.210;2022-12-16T12:23:03;0.70;99.90
46335;DHT22;32051;48.882;9.210;2022-12-16T12:25:51;0.60;99.90
46335;DHT22;32051;48.882;9.210;2022-12-16T12:28:42;0.70;99.90
46335;DHT22;32051;48.882;9.210;2022-12-16T12:34:15;0.60;99.90
46335;DHT22;32051;48.882;9.210;2022-12-16T12:37:04;0.60;99.90
46335;DHT22;32051;48.882;9.210;2022-12-16T12:40:40;0.50;99.90
46335;DHT22;32051;48.882;9.210;2022-12-16T12:42:55;0.40;99.90
46335;DHT22;32051;48.882;9.210;2022-12-16T12:48:39;0.20;99.90
46335;DHT22;32051;48.882;9.210;2022-12-16T12:57:21;0.00;99.90
46335;DHT22;32051;48.882;9.210;2022-12-16T13:00:25;0.10;99.90
46335;DHT22;32051;48.882;9.210;2022-12-16T13:03:17;0.10;99.90
46335;DHT22;32051;48.882;9.210;2022-12-16T13:06:03;0.20;99.90
46335;DHT22;32051;48.882;9.210;2022-12-16T13:11:32;0.10;99.90
46335;DHT22;32051;48.882;9.210;2022-12-16T13:17:16;0.10;99.90
46335;DHT22;32051;48.882;9.210;2022-12-16T13:20:01;0.10;99.90
46335;DHT22;32051;48.882;9.210;2022-12-16T13:22:45;0.10;99.90
46335;DHT22;32051;48.882;9.210;2022-12-16T13:25:49;0.10;99.90
46335;DHT22;32051;48.882;9.210;2022-12-16T13:28:35;0.10;99.90
46335;DHT22;32051;48.882;9.210;2022-12-16T13:31:20;0.00;99.90
46335;DHT22;32051;48.882;9.210;2022-12-16T13:34:05;0.00;99.90
46335;DHT22;32051;48.882;9.210;2022-12-16T13:36:53;0.00;99.90
46335;DHT22;32051;48.882;9.210;2022-12-16T13:39:38;-0.10;99.90
46335;DHT22;32051;48.882;9.210;2022-12-16T13:42:31;-0.10;99.90
46335;DHT22;32051;48.882;9.210;2022-12-16T13:45:27;-0.10;99.90
46335;DHT22;32051;48.882;9.210;2022-12-16T13:48:30;-0.10;99.90
46335;DHT22;32051;48.882;9.210;2022-12-16T13:54:22;-0.10;99.90
46335;DHT22;32051;48.882;9.210;2022-12-16T13:57:09;-0.20;99.90
46335;DHT22;32051;48.882;9.210;2022-12-16T13:59:56;-0.20;99.90
46335;DHT22;32051;48.882;9.210;2022-12-16T14:02:41;-0.30;99.90
46335;DHT22;32051;48.882;9.210;2022-12-16T14:05:27;-0.30;99.90
46335;DHT22;32051;48.882;9.210;2022-12-16T14:08:15;-0.30;99.90
46335;DHT22;32051;48.882;9.210;2022-12-16T14:11:01;-0.30;99.90
46335;DHT22;32051;48.882;9.210;2022-12-16T14:13:48;-0.40;99.90
46335;DHT22;32051;48.882;9.210;2022-12-16T14:16:39;-0.40;99.90
46335;DHT22;32051;48.882;9.210;2022-12-16T14:19:34;-0.40;99.90
46335;DHT22;32051;48.882;9.210;2022-12-16T14:25:27;-0.50;99.90
46335;DHT22;32051;48.882;9.210;2022-12-16T14:28:18;-0.40;99.90
46335;DHT22;32051;48.882;9.210;2022-12-16T14:31:08;-0.50;99.90
46335;DHT22;32051;48.882;9.210;2022-12-16T14:34:02;-0.50;99.90
46335;DHT22;32051;48.882;9.210;2022-12-16T14:36:46;-0.50;99.90
46335;DHT22;32051;48.882;9.210;2022-12-16T14:39:34;-0.50;99.90
46335;DHT22;32051;48.882;9.210;2022-12-16T14:42:24;-0.60;99.90
46335;DHT22;32051;48.882;9.210;2022-12-16T14:48:12;-0.60;99.90
46335;DHT22;32051;48.882;9.210;2022-12-16T14:50:56;-0.60;99.90
46335;DHT22;32051;48.882;9.210;2022-12-16T14:53:40;-0.60;99.90
46335;DHT22;32051;48.882;9.210;2022-12-16T14:56:29;-0.60;99.90
46335;DHT22;32051;48.882;9.210;2022-12-16T14:59:14;-0.60;99.90
46335;DHT22;32051;48.882;9.210;2022-12-16T15:02:07;-0.60;99.90
46335;DHT22;32051;48.882;9.210;2022-12-16T15:04:54;-0.60;99.90
46335;DHT22;32051;48.882;9.210;2022-12-16T15:07:40;-0.60;99.90
46335;DHT22;32051;48.882;9.210;2022-12-16T15:10:25;-0.60;99.90
46335;DHT22;32051;48.882;9.210;2022-12-16T15:13:12;-0.70;99.90
46335;DHT22;32051;48.882;9.210;2022-12-16T15:15:57;-0.70;99.90
46335;DHT22;32051;48.882;9.210;2022-12-16T15:18:43;-0.80;99.90
46335;DHT22;32051;48.882;9.210;2022-12-16T15:21:31;-0.80;99.90
46335;DHT22;32051;48.882;9.210;2022-12-16T15:24:17;-0.80;99.90
46335;DHT22;32051;48.882;9.210;2022-12-16T15:33:09;-0.90;99.90
46335;DHT22;32051;48.882;9.210;2022-12-16T15:36:01;-0.90;99.90
46335;DHT22;32051;48.882;9.210;2022-12-16T15:38:46;-0.90;99.90
46335;DHT22;32051;48.882;9.210;2022-12-16T15:41:31;-1.00;99.90
46335;DHT22;32051;48.882;9.210;2022-12-16T15:44:16;-1.00;99.90
46335;DHT22;32051;48.882;9.210;2022-12-16T15:47:01;-1.00;99.90
46335;DHT22;32051;48.882;9.210;2022-12-16T15:49:46;-1.00;99.90
46335;DHT22;32051;48.882;9.210;2022-12-16T15:52:41;-1.10;99.90
46335;DHT22;32051;48.882;9.210;2022-12-16T15:58:14;-1.10;99.90
46335;DHT22;32051;48.882;9.210;2022-12-16T16:00:58;-1.10;99.90
46335;DHT22;32051;48.882;9.210;2022-12-16T16:03:49;-1.10;99.90
46335;DHT22;32051;48.882;9.210;2022-12-16T16:06:33;-1.00;99.90
46335;DHT22;32051;48.882;9.210;2022-12-16T16:09:22;-1.10;99.90
46335;DHT22;32051;48.882;9.210;2022-12-16T16:12:13;-1.10;99.90
46335;DHT22;32051;48.882;9.210;2022-12-16T16:14:58;-1.10;99.90
46335;DHT22;32051;48.882;9.210;2022-12-16T16:17:42;-1.10;99.90
46335;DHT22;32051;48.882;9.210;2022-12-16T16:20:26;-1.10;99.90
46335;DHT22;32051;48.882;9.210;2022-12-16T16:23:10;-1.10;99.90
46335;DHT22;32051;48.882;9.210;2022-12-16T16:25:54;-1.10;99.90
46335;DHT22;32051;48.882;9.210;2022-12-16T16:28:38;-1.10;99.90
46335;DHT22;32051;48.882;9.210;2022-12-16T16:31:22;-1.20;99.90
46335;DHT22;32051;48.882;9.210;2022-12-16T16:34:07;-1.20;99.90
46335;DHT22;32051;48.882;9.210;2022-12-16T16:36:52;-1.10;99.90
46335;DHT22;32051;48.882;9.210;2022-12-16T16:39:36;-1.10;99.90
46335;DHT22;32051;48.882;9.210;2022-12-16T16:42:20;-1.20;99.90
46335;DHT22;32051;48.882;9.210;2022-12-16T16:45:06;-1.20;99.90
46335;DHT22;32051;48.882;9.210;2022-12-16T16:47:52;-1.20;99.90
46335;DHT22;32051;48.882;9.210;2022-12-16T16:50:37;-1.20;99.90
46335;DHT22;32051;48.882;9.210;2022-12-16T16:53:21;-1.20;99.90
46335;DHT22;32051;48.882;9.210;2022-12-16T16:56:06;-1.20;99.90
46335;DHT22;32051;48.882;9.210;2022-12-16T16:58:51;-1.30;99.90
46335;DHT22;32051;48.882;9.210;2022-12-16T17:01:35;-1.30;99.90
46335;DHT22;32051;48.882;9.210;2022-12-16T17:04:19;-1.30;99.90
46335;DHT22;32051;48.882;9.210;2022-12-16T17:07:03;-1.30;99.90
46335;DHT22;32051;48.882;9.210;2022-12-16T17:09:48;-1.30;99.90
46335;DHT22;32051;48.882;9.210;2022-12-16T17:12:32;-1.30;99.90
46335;DHT22;32051;48.882;9.210;2022-12-16T17:18:00;-1.40;99.90
46335;DHT22;32051;48.882;9.210;2022-12-16T17:20:44;-1.50;99.90
46335;DHT22;32051;48.882;9.210;2022-12-16T17:23:28;-1.50;99.90
46335;DHT22;32051;48.882;9.210;2022-12-16T17:26:12;-1.50;99.90
46335;DHT22;32051;48.882;9.210;2022-12-16T17:29:00;-1.50;99.90
46335;DHT22;32051;48.882;9.210;2022-12-16T17:31:44;-1.50;99.90
46335;DHT22;32051;48.882;9.210;2022-12-16T17:34:28;-1.50;99.90
46335;DHT22;32051;48.882;9.210;2022-12-16T17:37:12;-1.50;99.90
46335;DHT22;32051;48.882;9.210;2022-12-16T17:39:56;-1.60;99.90
46335;DHT22;32051;48.882;9.210;2022-12-16T17:42:40;-1.60;99.90
46335;DHT22;32051;48.882;9.210;2022-12-16T17:45:24;-1.60;99.90
46335;DHT22;32051;48.882;9.210;2022-12-16T17:48:08;-1.60;99.90
46335;DHT22;32051;48.882;9.210;2022-12-16T17:50:52;-1.60;99.90
46335;DHT22;32051;48.882;9.210;2022-12-16T17:53:36;-1.60;99.90
46335;DHT22;32051;48.882;9.210;2022-12-16T17:56:20;-1.60;99.90
46335;DHT22;32051;48.882;9.210;2022-12-16T17:59:04;-1.60;99.90
46335;DHT22;32051;48.882;9.210;2022-12-16T18:01:48;-1.60;99.90
46335;DHT22;32051;48.882;9.210;2022-12-16T18:04:32;-1.60;99.90
46335;DHT22;32051;48.882;9.210;2022-12-16T18:07:16;-1.60;99.90
46335;DHT22;32051;48.882;9.210;2022-12-16T18:10:01;-1.60;99.90
46335;DHT22;32051;48.882;9.210;2022-12-16T18:12:45;-1.70;99.90
46335;DHT22;32051;48.882;9.210;2022-12-16T18:15:29;-1.70;99.90
46335;DHT22;32051;48.882;9.210;2022-12-16T18:18:13;-1.70;99.90
46335;DHT22;32051;48.882;9.210;2022-12-16T18:21:06;-1.70;99.90
46335;DHT22;32051;48.882;9.210;2022-12-16T18:23:51;-1.70;99.90
46335;DHT22;32051;48.882;9.210;2022-12-16T18:26:35;-1.70;99.90